sensor_id;sensor_type;location;lat;lon;timestamp;P1;durP1;ratioP1;P2;durP2;ratioP2
70812;SDS011;62099;52.170;5.386;2022-09-20T00:01:25;8.73;;;1.70;;
70812;SDS011;62099;52.170;5.386;2022-09-20T00:03:54;11.63;;;1.73;;
70812;SDS011;62099;52.170;5.386;2022-09-20T00:06:26;6.40;;;1.20;;
70812;SDS011;62099;52.170;5.386;2022-09-20T00:08:54;10.48;;;1.90;;
70812;SDS011;62099;52.170;5.386;2022-09-20T00:11:22;8.55;;;1.73;;
70812;SDS011;62099;52.170;5.386;2022-09-20T00:13:55;6.05;;;1.45;;
70812;SDS011;62099;52.170;5.386;2022-09-20T00:16:24;6.35;;;1.38;;
70812;SDS011;62099;52.170;5.386;2022-09-20T00:18:54;10.02;;;1.30;;
70812;SDS011;62099;52.170;5.386;2022-09-20T00:21:23;4.50;;;1.42;;
70812;SDS011;62099;52.170;5.386;2022-09-20T00:23:54;6.97;;;1.42;;
70812;SDS011;62099;52.170;5.386;2022-09-20T00:26:23;11.27;;;1.58;;
70812;SDS011;62099;52.170;5.386;2022-09-20T00:28:51;12.35;;;2.00;;
70812;SDS011;62099;52.170;5.386;2022-09-20T00:31:18;7.40;;;1.55;;
70812;SDS011;62099;52.170;5.386;2022-09-20T00:33:45;9.43;;;1.60;;
70812;SDS011;62099;52.170;5.386;2022-09-20T00:36:30;5.00;;;1.38;;
70812;SDS011;62099;52.170;5.386;2022-09-20T00:38:58;6.15;;;1.13;;
70812;SDS011;62099;52.170;5.386;2022-09-20T00:41:26;7.50;;;1.88;;
70812;SDS011;62099;52.170;5.386;2022-09-20T00:43:53;8.27;;;1.40;;
70812;SDS011;62099;52.170;5.386;2022-09-20T00:46:28;4.97;;;1.48;;
70812;SDS011;62099;52.170;5.386;2022-09-20T00:49:14;7.32;;;1.27;;
70812;SDS011;62099;52.170;5.386;2022-09-20T00:51:46;9.30;;;1.73;;
70812;SDS011;62099;52.170;5.386;2022-09-20T00:54:16;10.35;;;1.48;;
70812;SDS011;62099;52.170;5.386;2022-09-20T00:56:46;12.43;;;1.80;;
70812;SDS011;62099;52.170;5.386;2022-09-20T00:59:25;10.05;;;1.42;;
70812;SDS011;62099;52.170;5.386;2022-09-20T01:04:58;5.47;;;1.27;;
70812;SDS011;62099;52.170;5.386;2022-09-20T01:07:25;9.82;;;1.42;;
70812;SDS011;62099;52.170;5.386;2022-09-20T01:09:53;8.02;;;1.67;;
70812;SDS011;62099;52.170;5.386;2022-09-20T01:14:49;8.05;;;1.65;;
70812;SDS011;62099;52.170;5.386;2022-09-20T01:17:18;5.93;;;1.23;;
70812;SDS011;62099;52.170;5.386;2022-09-20T01:28:34;5.75;;;1.10;;
70812;SDS011;62099;52.170;5.386;2022-09-20T01:33:56;6.63;;;1.70;;
70812;SDS011;62099;52.170;5.386;2022-09-20T01:36:29;5.20;;;1.13;;
70812;SDS011;62099;52.170;5.386;2022-09-20T01:39:04;9.15;;;1.33;;
70812;SDS011;62099;52.170;5.386;2022-09-20T01:41:54;4.65;;;1.20;;
70812;SDS011;62099;52.170;5.386;2022-09-20T01:46:55;6.47;;;1.60;;
70812;SDS011;62099;52.170;5.386;2022-09-20T01:49:38;7.07;;;1.30;;
70812;SDS011;62099;52.170;5.386;2022-09-20T01:55:08;9.57;;;1.40;;
70812;SDS011;62099;52.170;5.386;2022-09-20T02:00:51;7.82;;;1.80;;
70812;SDS011;62099;52.170;5.386;2022-09-20T02:09:36;4.85;;;1.30;;
70812;SDS011;62099;52.170;5.386;2022-09-20T02:20:32;7.18;;;1.42;;
70812;SDS011;62099;52.170;5.386;2022-09-20T02:43:03;6.22;;;1.30;;
70812;SDS011;62099;52.170;5.386;2022-09-20T02:45:47;6.53;;;1.60;;
70812;SDS011;62099;52.170;5.386;2022-09-20T02:48:30;7.80;;;1.63;;
70812;SDS011;62099;52.170;5.386;2022-09-20T02:51:11;8.73;;;1.58;;
70812;SDS011;62099;52.170;5.386;2022-09-20T02:54:53;10.57;;;2.17;;
70812;SDS011;62099;52.170;5.386;2022-09-20T03:02:29;11.68;;;1.80;;
70812;SDS011;62099;52.170;5.386;2022-09-20T03:10:38;8.85;;;1.80;;
70812;SDS011;62099;52.170;5.386;2022-09-20T03:21:22;10.15;;;2.00;;
70812;SDS011;62099;52.170;5.386;2022-09-20T03:24:18;10.75;;;2.30;;
70812;SDS011;62099;52.170;5.386;2022-09-20T03:27:18;7.35;;;1.98;;
70812;SDS011;62099;52.170;5.386;2022-09-20T03:35:38;6.72;;;2.03;;
70812;SDS011;62099;52.170;5.386;2022-09-20T03:47:20;7.32;;;2.10;;
70812;SDS011;62099;52.170;5.386;2022-09-20T03:53:05;9.68;;;2.08;;
70812;SDS011;62099;52.170;5.386;2022-09-20T03:55:50;8.88;;;1.75;;
70812;SDS011;62099;52.170;5.386;2022-09-20T04:01:34;9.95;;;2.13;;
70812;SDS011;62099;52.170;5.386;2022-09-20T04:04:10;8.45;;;1.90;;
70812;SDS011;62099;52.170;5.386;2022-09-20T04:06:48;9.15;;;2.28;;
70812;SDS011;62099;52.170;5.386;2022-09-20T04:12:17;12.30;;;2.25;;
70812;SDS011;62099;52.170;5.386;2022-09-20T04:17:54;9.68;;;2.30;;
70812;SDS011;62099;52.170;5.386;2022-09-20T04:20:47;9.00;;;2.33;;
70812;SDS011;62099;52.170;5.386;2022-09-20T04:26:01;9.70;;;2.15;;
70812;SDS011;62099;52.170;5.386;2022-09-20T04:28:39;13.25;;;2.42;;
70812;SDS011;62099;52.170;5.386;2022-09-20T04:31:38;7.38;;;2.40;;
70812;SDS011;62099;52.170;5.386;2022-09-20T04:34:21;5.85;;;2.22;;
70812;SDS011;62099;52.170;5.386;2022-09-20T04:37:32;13.80;;;2.60;;
70812;SDS011;62099;52.170;5.386;2022-09-20T04:48:38;9.63;;;3.30;;
70812;SDS011;62099;52.170;5.386;2022-09-20T04:51:33;9.93;;;2.83;;
70812;SDS011;62099;52.170;5.386;2022-09-20T05:00:19;10.35;;;2.80;;
70812;SDS011;62099;52.170;5.386;2022-09-20T05:05:45;8.75;;;2.92;;
70812;SDS011;62099;52.170;5.386;2022-09-20T05:16:57;11.20;;;2.65;;
70812;SDS011;62099;52.170;5.386;2022-09-20T05:19:30;10.00;;;2.83;;
70812;SDS011;62099;52.170;5.386;2022-09-20T05:33:18;7.53;;;2.50;;
70812;SDS011;62099;52.170;5.386;2022-09-20T05:44:22;13.55;;;2.30;;
70812;SDS011;62099;52.170;5.386;2022-09-20T05:52:55;8.50;;;2.15;;
70812;SDS011;62099;52.170;5.386;2022-09-20T06:01:18;15.85;;;4.05;;
70812;SDS011;62099;52.170;5.386;2022-09-20T06:04:15;9.63;;;2.58;;
70812;SDS011;62099;52.170;5.386;2022-09-20T06:12:30;10.25;;;2.80;;
70812;SDS011;62099;52.170;5.386;2022-09-20T06:15:34;11.70;;;2.90;;
70812;SDS011;62099;52.170;5.386;2022-09-20T06:18:23;12.10;;;2.83;;
70812;SDS011;62099;52.170;5.386;2022-09-20T06:23:51;8.75;;;2.80;;
70812;SDS011;62099;52.170;5.386;2022-09-20T06:26:24;13.38;;;2.78;;
70812;SDS011;62099;52.170;5.386;2022-09-20T06:29:04;11.63;;;2.90;;
70812;SDS011;62099;52.170;5.386;2022-09-20T06:31:36;10.00;;;3.00;;
70812;SDS011;62099;52.170;5.386;2022-09-20T06:36:38;14.02;;;3.45;;
70812;SDS011;62099;52.170;5.386;2022-09-20T06:39:32;13.38;;;3.05;;
70812;SDS011;62099;52.170;5.386;2022-09-20T06:42:26;8.77;;;2.80;;
70812;SDS011;62099;52.170;5.386;2022-09-20T06:44:53;14.02;;;2.63;;
70812;SDS011;62099;52.170;5.386;2022-09-20T06:47:20;10.40;;;2.60;;
70812;SDS011;62099;52.170;5.386;2022-09-20T06:49:48;12.77;;;3.20;;
70812;SDS011;62099;52.170;5.386;2022-09-20T06:52:16;11.00;;;2.70;;
70812;SDS011;62099;52.170;5.386;2022-09-20T06:54:44;10.50;;;2.65;;
70812;SDS011;62099;52.170;5.386;2022-09-20T06:57:13;16.73;;;3.63;;
70812;SDS011;62099;52.170;5.386;2022-09-20T06:59:43;10.80;;;4.00;;
70812;SDS011;62099;52.170;5.386;2022-09-20T07:02:10;9.48;;;2.50;;
70812;SDS011;62099;52.170;5.386;2022-09-20T07:04:37;13.40;;;2.83;;
70812;SDS011;62099;52.170;5.386;2022-09-20T07:07:05;11.23;;;3.15;;
70812;SDS011;62099;52.170;5.386;2022-09-20T07:09:34;12.57;;;2.45;;
70812;SDS011;62099;52.170;5.386;2022-09-20T07:12:01;10.38;;;2.70;;
70812;SDS011;62099;52.170;5.386;2022-09-20T07:14:28;9.57;;;2.38;;
70812;SDS011;62099;52.170;5.386;2022-09-20T07:16:55;9.50;;;2.20;;
70812;SDS011;62099;52.170;5.386;2022-09-20T07:19:21;8.57;;;2.20;;
70812;SDS011;62099;52.170;5.386;2022-09-20T07:21:48;5.82;;;1.88;;
70812;SDS011;62099;52.170;5.386;2022-09-20T07:24:15;9.20;;;2.10;;
70812;SDS011;62099;52.170;5.386;2022-09-20T07:26:58;9.02;;;1.95;;
70812;SDS011;62099;52.170;5.386;2022-09-20T07:29:26;10.43;;;2.08;;
70812;SDS011;62099;52.170;5.386;2022-09-20T07:31:53;5.20;;;1.80;;
70812;SDS011;62099;52.170;5.386;2022-09-20T07:34:21;7.68;;;1.70;;
70812;SDS011;62099;52.170;5.386;2022-09-20T07:36:49;9.45;;;2.03;;
70812;SDS011;62099;52.170;5.386;2022-09-20T07:39:16;12.07;;;2.08;;
70812;SDS011;62099;52.170;5.386;2022-09-20T07:41:43;8.77;;;2.13;;
70812;SDS011;62099;52.170;5.386;2022-09-20T07:44:16;12.07;;;2.53;;
70812;SDS011;62099;52.170;5.386;2022-09-20T07:46:50;9.30;;;2.28;;
70812;SDS011;62099;52.170;5.386;2022-09-20T07:49:17;11.65;;;2.67;;
70812;SDS011;62099;52.170;5.386;2022-09-20T07:51:45;8.30;;;1.60;;
70812;SDS011;62099;52.170;5.386;2022-09-20T07:54:13;9.70;;;1.63;;
70812;SDS011;62099;52.170;5.386;2022-09-20T07:59:06;8.18;;;1.40;;
70812;SDS011;62099;52.170;5.386;2022-09-20T08:01:35;3.88;;;0.90;;
70812;SDS011;62099;52.170;5.386;2022-09-20T08:04:08;3.72;;;1.00;;
70812;SDS011;62099;52.170;5.386;2022-09-20T08:06:36;5.65;;;1.45;;
70812;SDS011;62099;52.170;5.386;2022-09-20T08:09:05;5.53;;;1.10;;
70812;SDS011;62099;52.170;5.386;2022-09-20T08:11:36;3.80;;;1.08;;
70812;SDS011;62099;52.170;5.386;2022-09-20T08:14:05;4.95;;;1.20;;
70812;SDS011;62099;52.170;5.386;2022-09-20T08:16:38;5.15;;;1.13;;
70812;SDS011;62099;52.170;5.386;2022-09-20T08:19:07;5.90;;;1.20;;
70812;SDS011;62099;52.170;5.386;2022-09-20T08:24:01;6.65;;;1.25;;
70812;SDS011;62099;52.170;5.386;2022-09-20T08:26:29;6.60;;;1.30;;
70812;SDS011;62099;52.170;5.386;2022-09-20T08:29:00;7.07;;;1.30;;
70812;SDS011;62099;52.170;5.386;2022-09-20T08:33:57;5.97;;;1.00;;
70812;SDS011;62099;52.170;5.386;2022-09-20T08:36:28;5.55;;;1.00;;
70812;SDS011;62099;52.170;5.386;2022-09-20T08:39:02;6.70;;;1.23;;
70812;SDS011;62099;52.170;5.386;2022-09-20T08:45:00;7.57;;;1.38;;
70812;SDS011;62099;52.170;5.386;2022-09-20T08:47:30;7.00;;;0.90;;
70812;SDS011;62099;52.170;5.386;2022-09-20T08:50:02;8.57;;;1.33;;
70812;SDS011;62099;52.170;5.386;2022-09-20T08:52:35;5.65;;;1.08;;
70812;SDS011;62099;52.170;5.386;2022-09-20T08:57:54;3.65;;;0.80;;
70812;SDS011;62099;52.170;5.386;2022-09-20T09:00:24;8.30;;;1.48;;
70812;SDS011;62099;52.170;5.386;2022-09-20T09:02:56;9.85;;;1.23;;
70812;SDS011;62099;52.170;5.386;2022-09-20T09:05:28;4.05;;;1.17;;
70812;SDS011;62099;52.170;5.386;2022-09-20T09:07:58;5.82;;;1.00;;
70812;SDS011;62099;52.170;5.386;2022-09-20T09:10:32;8.18;;;1.25;;
70812;SDS011;62099;52.170;5.386;2022-09-20T09:13:10;5.28;;;1.10;;
70812;SDS011;62099;52.170;5.386;2022-09-20T09:15:51;6.32;;;1.42;;
70812;SDS011;62099;52.170;5.386;2022-09-20T09:18:25;5.50;;;0.90;;
70812;SDS011;62099;52.170;5.386;2022-09-20T09:20:59;5.30;;;1.30;;
70812;SDS011;62099;52.170;5.386;2022-09-20T09:23:30;2.92;;;0.80;;
70812;SDS011;62099;52.170;5.386;2022-09-20T09:26:13;4.63;;;0.77;;
70812;SDS011;62099;52.170;5.386;2022-09-20T09:28:46;6.22;;;1.00;;
70812;SDS011;62099;52.170;5.386;2022-09-20T09:31:20;5.32;;;1.00;;
70812;SDS011;62099;52.170;5.386;2022-09-20T09:33:51;5.63;;;0.98;;
70812;SDS011;62099;52.170;5.386;2022-09-20T09:36:21;7.13;;;1.00;;
70812;SDS011;62099;52.170;5.386;2022-09-20T09:38:50;5.93;;;1.00;;
70812;SDS011;62099;52.170;5.386;2022-09-20T09:42:08;5.13;;;0.90;;
70812;SDS011;62099;52.170;5.386;2022-09-20T09:44:45;4.88;;;0.63;;
70812;SDS011;62099;52.170;5.386;2022-09-20T09:47:22;4.05;;;0.80;;
70812;SDS011;62099;52.170;5.386;2022-09-20T09:49:56;4.70;;;0.80;;
70812;SDS011;62099;52.170;5.386;2022-09-20T09:52:29;5.53;;;1.02;;
70812;SDS011;62099;52.170;5.386;2022-09-20T09:54:58;3.53;;;0.60;;
70812;SDS011;62099;52.170;5.386;2022-09-20T10:00:24;6.38;;;0.98;;
70812;SDS011;62099;52.170;5.386;2022-09-20T10:11:54;3.05;;;0.77;;
70812;SDS011;62099;52.170;5.386;2022-09-20T10:20:23;5.78;;;0.80;;
70812;SDS011;62099;52.170;5.386;2022-09-20T10:28:46;3.92;;;0.60;;
70812;SDS011;62099;52.170;5.386;2022-09-20T10:31:24;2.58;;;0.70;;
70812;SDS011;62099;52.170;5.386;2022-09-20T10:42:44;2.90;;;0.65;;
70812;SDS011;62099;52.170;5.386;2022-09-20T10:45:47;4.30;;;0.85;;
70812;SDS011;62099;52.170;5.386;2022-09-20T10:48:40;4.25;;;0.80;;
70812;SDS011;62099;52.170;5.386;2022-09-20T10:54:09;5.22;;;0.90;;
70812;SDS011;62099;52.170;5.386;2022-09-20T11:05:53;4.45;;;0.82;;
70812;SDS011;62099;52.170;5.386;2022-09-20T11:08:41;6.05;;;0.77;;
70812;SDS011;62099;52.170;5.386;2022-09-20T11:11:10;5.18;;;1.00;;
70812;SDS011;62099;52.170;5.386;2022-09-20T11:13:45;4.32;;;1.00;;
70812;SDS011;62099;52.170;5.386;2022-09-20T11:16:45;6.35;;;1.10;;
70812;SDS011;62099;52.170;5.386;2022-09-20T11:19:30;5.68;;;1.05;;
70812;SDS011;62099;52.170;5.386;2022-09-20T11:22:21;5.47;;;0.90;;
70812;SDS011;62099;52.170;5.386;2022-09-20T11:24:56;8.80;;;1.20;;
70812;SDS011;62099;52.170;5.386;2022-09-20T11:27:29;3.50;;;0.90;;
70812;SDS011;62099;52.170;5.386;2022-09-20T11:37:38;3.72;;;0.75;;
70812;SDS011;62099;52.170;5.386;2022-09-20T11:40:14;4.32;;;0.60;;
70812;SDS011;62099;52.170;5.386;2022-09-20T11:42:47;9.20;;;1.25;;
70812;SDS011;62099;52.170;5.386;2022-09-20T11:45:18;7.03;;;1.30;;
70812;SDS011;62099;52.170;5.386;2022-09-20T11:47:52;6.63;;;0.90;;
70812;SDS011;62099;52.170;5.386;2022-09-20T11:58:52;6.18;;;0.82;;
70812;SDS011;62099;52.170;5.386;2022-09-20T12:01:25;7.00;;;1.05;;
70812;SDS011;62099;52.170;5.386;2022-09-20T12:09:35;5.25;;;0.98;;
70812;SDS011;62099;52.170;5.386;2022-09-20T12:14:57;6.90;;;1.38;;
70812;SDS011;62099;52.170;5.386;2022-09-20T12:26:09;4.60;;;0.93;;
70812;SDS011;62099;52.170;5.386;2022-09-20T12:28:49;4.38;;;0.82;;
70812;SDS011;62099;52.170;5.386;2022-09-20T12:36:28;6.40;;;0.90;;
70812;SDS011;62099;52.170;5.386;2022-09-20T12:38:58;9.23;;;1.08;;
70812;SDS011;62099;52.170;5.386;2022-09-20T12:41:27;6.28;;;1.00;;
70812;SDS011;62099;52.170;5.386;2022-09-20T12:44:29;6.30;;;1.10;;
70812;SDS011;62099;52.170;5.386;2022-09-20T12:47:05;10.43;;;1.00;;
70812;SDS011;62099;52.170;5.386;2022-09-20T13:03:30;3.72;;;0.80;;
70812;SDS011;62099;52.170;5.386;2022-09-20T13:08:46;5.80;;;0.88;;
70812;SDS011;62099;52.170;5.386;2022-09-20T13:11:19;3.95;;;0.85;;
70812;SDS011;62099;52.170;5.386;2022-09-20T13:16:45;4.88;;;0.88;;
70812;SDS011;62099;52.170;5.386;2022-09-20T13:19:22;5.45;;;1.00;;
70812;SDS011;62099;52.170;5.386;2022-09-20T13:24:25;6.05;;;0.75;;
70812;SDS011;62099;52.170;5.386;2022-09-20T13:26:55;4.40;;;0.90;;
70812;SDS011;62099;52.170;5.386;2022-09-20T13:29:31;8.07;;;1.02;;
70812;SDS011;62099;52.170;5.386;2022-09-20T13:38:01;6.63;;;1.10;;
70812;SDS011;62099;52.170;5.386;2022-09-20T13:40:41;3.00;;;0.88;;
70812;SDS011;62099;52.170;5.386;2022-09-20T13:43:26;5.78;;;1.10;;
70812;SDS011;62099;52.170;5.386;2022-09-20T13:45:54;6.32;;;0.80;;
70812;SDS011;62099;52.170;5.386;2022-09-20T13:48:26;4.97;;;0.77;;
70812;SDS011;62099;52.170;5.386;2022-09-20T13:50:54;9.00;;;1.30;;
70812;SDS011;62099;52.170;5.386;2022-09-20T13:53:23;5.57;;;1.08;;
70812;SDS011;62099;52.170;5.386;2022-09-20T13:56:15;5.63;;;1.05;;
70812;SDS011;62099;52.170;5.386;2022-09-20T13:58:46;4.35;;;1.00;;
70812;SDS011;62099;52.170;5.386;2022-09-20T14:01:25;6.65;;;1.08;;
70812;SDS011;62099;52.170;5.386;2022-09-20T14:03:57;6.07;;;1.52;;
70812;SDS011;62099;52.170;5.386;2022-09-20T14:06:47;6.85;;;1.17;;
70812;SDS011;62099;52.170;5.386;2022-09-20T14:09:27;7.82;;;1.00;;
70812;SDS011;62099;52.170;5.386;2022-09-20T14:11:57;9.30;;;1.10;;
70812;SDS011;62099;52.170;5.386;2022-09-20T14:14:25;3.35;;;0.70;;
70812;SDS011;62099;52.170;5.386;2022-09-20T14:16:54;5.40;;;1.10;;
70812;SDS011;62099;52.170;5.386;2022-09-20T14:19:24;5.50;;;0.90;;
70812;SDS011;62099;52.170;5.386;2022-09-20T14:21:57;4.75;;;1.15;;
70812;SDS011;62099;52.170;5.386;2022-09-20T14:24:28;4.40;;;1.05;;
70812;SDS011;62099;52.170;5.386;2022-09-20T14:27:02;5.00;;;0.90;;
70812;SDS011;62099;52.170;5.386;2022-09-20T14:29:45;5.13;;;1.10;;
70812;SDS011;62099;52.170;5.386;2022-09-20T14:34:48;3.85;;;0.93;;
70812;SDS011;62099;52.170;5.386;2022-09-20T14:37:23;9.63;;;1.20;;
70812;SDS011;62099;52.170;5.386;2022-09-20T14:39:54;5.00;;;0.80;;
70812;SDS011;62099;52.170;5.386;2022-09-20T14:42:28;4.07;;;0.88;;
70812;SDS011;62099;52.170;5.386;2022-09-20T14:45:06;5.40;;;1.10;;
70812;SDS011;62099;52.170;5.386;2022-09-20T14:47:37;4.70;;;1.02;;
70812;SDS011;62099;52.170;5.386;2022-09-20T14:50:27;7.72;;;1.80;;
70812;SDS011;62099;52.170;5.386;2022-09-20T14:53:00;4.93;;;1.58;;
70812;SDS011;62099;52.170;5.386;2022-09-20T14:55:31;5.22;;;1.10;;
70812;SDS011;62099;52.170;5.386;2022-09-20T14:58:10;8.18;;;1.33;;
70812;SDS011;62099;52.170;5.386;2022-09-20T15:00:55;6.45;;;1.27;;
70812;SDS011;62099;52.170;5.386;2022-09-20T15:03:31;3.50;;;1.05;;
70812;SDS011;62099;52.170;5.386;2022-09-20T15:06:01;7.55;;;0.90;;
70812;SDS011;62099;52.170;5.386;2022-09-20T15:08:29;5.95;;;0.93;;
70812;SDS011;62099;52.170;5.386;2022-09-20T15:10:57;4.97;;;1.27;;
70812;SDS011;62099;52.170;5.386;2022-09-20T15:13:25;6.68;;;1.05;;
70812;SDS011;62099;52.170;5.386;2022-09-20T15:15:52;9.32;;;1.17;;
70812;SDS011;62099;52.170;5.386;2022-09-20T15:18:23;4.57;;;0.82;;
70812;SDS011;62099;52.170;5.386;2022-09-20T15:20:52;11.98;;;1.30;;
70812;SDS011;62099;52.170;5.386;2022-09-20T15:23:20;7.30;;;0.93;;
70812;SDS011;62099;52.170;5.386;2022-09-20T15:25:51;6.00;;;1.05;;
70812;SDS011;62099;52.170;5.386;2022-09-20T15:28:19;5.55;;;1.00;;
70812;SDS011;62099;52.170;5.386;2022-09-20T15:30:47;5.68;;;1.02;;
70812;SDS011;62099;52.170;5.386;2022-09-20T15:33:16;8.48;;;1.17;;
70812;SDS011;62099;52.170;5.386;2022-09-20T15:35:43;4.85;;;0.70;;
70812;SDS011;62099;52.170;5.386;2022-09-20T15:38:11;4.32;;;0.98;;
70812;SDS011;62099;52.170;5.386;2022-09-20T15:40:41;6.97;;;1.00;;
70812;SDS011;62099;52.170;5.386;2022-09-20T15:43:10;3.78;;;1.10;;
70812;SDS011;62099;52.170;5.386;2022-09-20T15:45:45;7.80;;;1.02;;
70812;SDS011;62099;52.170;5.386;2022-09-20T15:48:17;7.43;;;1.00;;
70812;SDS011;62099;52.170;5.386;2022-09-20T15:50:59;5.22;;;0.90;;
70812;SDS011;62099;52.170;5.386;2022-09-20T15:53:31;3.72;;;0.90;;
70812;SDS011;62099;52.170;5.386;2022-09-20T15:56:27;6.22;;;0.95;;
70812;SDS011;62099;52.170;5.386;2022-09-20T15:58:59;4.75;;;1.15;;
70812;SDS011;62099;52.170;5.386;2022-09-20T16:01:28;5.32;;;1.08;;
70812;SDS011;62099;52.170;5.386;2022-09-20T16:03:58;2.70;;;0.80;;
70812;SDS011;62099;52.170;5.386;2022-09-20T16:06:25;5.43;;;1.10;;
70812;SDS011;62099;52.170;5.386;2022-09-20T16:08:51;6.43;;;1.30;;
70812;SDS011;62099;52.170;5.386;2022-09-20T16:11:19;7.05;;;1.30;;
70812;SDS011;62099;52.170;5.386;2022-09-20T16:13:51;5.50;;;1.50;;
70812;SDS011;62099;52.170;5.386;2022-09-20T16:16:19;5.43;;;1.00;;
70812;SDS011;62099;52.170;5.386;2022-09-20T16:18:46;5.75;;;1.10;;
70812;SDS011;62099;52.170;5.386;2022-09-20T16:21:32;5.93;;;1.30;;
70812;SDS011;62099;52.170;5.386;2022-09-20T16:24:01;5.03;;;1.25;;
70812;SDS011;62099;52.170;5.386;2022-09-20T16:26:28;6.57;;;1.25;;
70812;SDS011;62099;52.170;5.386;2022-09-20T16:28:56;4.65;;;1.15;;
70812;SDS011;62099;52.170;5.386;2022-09-20T16:33:53;9.68;;;1.20;;
70812;SDS011;62099;52.170;5.386;2022-09-20T16:38:52;7.00;;;1.05;;
70812;SDS011;62099;52.170;5.386;2022-09-20T16:41:24;7.90;;;1.20;;
70812;SDS011;62099;52.170;5.386;2022-09-20T16:43:52;9.02;;;1.20;;
70812;SDS011;62099;52.170;5.386;2022-09-20T16:46:19;4.88;;;1.00;;
70812;SDS011;62099;52.170;5.386;2022-09-20T16:48:47;4.97;;;1.08;;
70812;SDS011;62099;52.170;5.386;2022-09-20T16:51:19;6.10;;;1.20;;
70812;SDS011;62099;52.170;5.386;2022-09-20T16:53:52;6.82;;;1.08;;
70812;SDS011;62099;52.170;5.386;2022-09-20T16:56:21;5.78;;;1.20;;
70812;SDS011;62099;52.170;5.386;2022-09-20T16:58:50;7.90;;;1.20;;
70812;SDS011;62099;52.170;5.386;2022-09-20T17:01:17;5.57;;;1.10;;
70812;SDS011;62099;52.170;5.386;2022-09-20T17:03:44;5.95;;;1.17;;
70812;SDS011;62099;52.170;5.386;2022-09-20T17:06:12;5.57;;;1.30;;
70812;SDS011;62099;52.170;5.386;2022-09-20T17:08:41;7.75;;;1.63;;
70812;SDS011;62099;52.170;5.386;2022-09-20T17:11:10;3.78;;;1.10;;
70812;SDS011;62099;52.170;5.386;2022-09-20T17:13:42;6.30;;;1.10;;
70812;SDS011;62099;52.170;5.386;2022-09-20T17:16:11;9.60;;;1.48;;
70812;SDS011;62099;52.170;5.386;2022-09-20T17:18:40;5.90;;;1.33;;
70812;SDS011;62099;52.170;5.386;2022-09-20T17:21:09;6.25;;;1.70;;
70812;SDS011;62099;52.170;5.386;2022-09-20T17:23:51;4.93;;;0.93;;
70812;SDS011;62099;52.170;5.386;2022-09-20T17:26:27;5.43;;;0.90;;
70812;SDS011;62099;52.170;5.386;2022-09-20T17:28:59;5.32;;;1.38;;
70812;SDS011;62099;52.170;5.386;2022-09-20T17:31:31;8.35;;;1.38;;
70812;SDS011;62099;52.170;5.386;2022-09-20T17:34:00;5.15;;;1.48;;
70812;SDS011;62099;52.170;5.386;2022-09-20T17:36:31;6.53;;;1.75;;
70812;SDS011;62099;52.170;5.386;2022-09-20T17:39:00;9.65;;;1.65;;
70812;SDS011;62099;52.170;5.386;2022-09-20T17:41:30;5.88;;;1.02;;
70812;SDS011;62099;52.170;5.386;2022-09-20T17:43:58;3.67;;;1.20;;
70812;SDS011;62099;52.170;5.386;2022-09-20T17:46:28;6.45;;;1.90;;
70812;SDS011;62099;52.170;5.386;2022-09-20T17:49:00;10.43;;;1.98;;
70812;SDS011;62099;52.170;5.386;2022-09-20T17:51:30;5.43;;;1.80;;
70812;SDS011;62099;52.170;5.386;2022-09-20T17:54:00;10.68;;;2.00;;
70812;SDS011;62099;52.170;5.386;2022-09-20T17:56:28;6.47;;;1.70;;
70812;SDS011;62099;52.170;5.386;2022-09-20T17:59:03;8.25;;;2.08;;
70812;SDS011;62099;52.170;5.386;2022-09-20T18:01:31;12.68;;;2.85;;
70812;SDS011;62099;52.170;5.386;2022-09-20T18:04:00;9.80;;;1.73;;
70812;SDS011;62099;52.170;5.386;2022-09-20T18:06:29;5.97;;;1.77;;
70812;SDS011;62099;52.170;5.386;2022-09-20T18:09:05;7.75;;;2.10;;
70812;SDS011;62099;52.170;5.386;2022-09-20T18:11:34;7.78;;;1.70;;
70812;SDS011;62099;52.170;5.386;2022-09-20T18:14:01;7.10;;;1.52;;
70812;SDS011;62099;52.170;5.386;2022-09-20T18:16:29;4.85;;;1.60;;
70812;SDS011;62099;52.170;5.386;2022-09-20T18:18:56;7.25;;;2.08;;
70812;SDS011;62099;52.170;5.386;2022-09-20T18:21:25;6.57;;;1.70;;
70812;SDS011;62099;52.170;5.386;2022-09-20T18:23:53;6.22;;;1.80;;
70812;SDS011;62099;52.170;5.386;2022-09-20T18:26:22;8.80;;;1.88;;
70812;SDS011;62099;52.170;5.386;2022-09-20T18:31:24;7.65;;;1.92;;
70812;SDS011;62099;52.170;5.386;2022-09-20T18:34:17;9.32;;;2.00;;
70812;SDS011;62099;52.170;5.386;2022-09-20T18:36:53;6.75;;;2.33;;
70812;SDS011;62099;52.170;5.386;2022-09-20T18:39:21;7.53;;;1.92;;
70812;SDS011;62099;52.170;5.386;2022-09-20T18:41:50;8.52;;;2.15;;
70812;SDS011;62099;52.170;5.386;2022-09-20T18:44:18;6.53;;;1.90;;
70812;SDS011;62099;52.170;5.386;2022-09-20T18:46:48;8.63;;;1.90;;
70812;SDS011;62099;52.170;5.386;2022-09-20T18:49:18;8.57;;;1.70;;
70812;SDS011;62099;52.170;5.386;2022-09-20T18:51:46;6.43;;;1.58;;
70812;SDS011;62099;52.170;5.386;2022-09-20T18:54:14;11.52;;;1.70;;
70812;SDS011;62099;52.170;5.386;2022-09-20T18:56:41;10.60;;;1.75;;
70812;SDS011;62099;52.170;5.386;2022-09-20T19:04:25;5.32;;;1.75;;
70812;SDS011;62099;52.170;5.386;2022-09-20T19:12:33;6.80;;;1.30;;
70812;SDS011;62099;52.170;5.386;2022-09-20T19:18:38;9.32;;;1.85;;
70812;SDS011;62099;52.170;5.386;2022-09-20T19:27:13;5.30;;;1.20;;
70812;SDS011;62099;52.170;5.386;2022-09-20T19:32:10;6.80;;;1.10;;
70812;SDS011;62099;52.170;5.386;2022-09-20T19:34:42;7.97;;;1.38;;
70812;SDS011;62099;52.170;5.386;2022-09-20T19:39:54;8.25;;;1.52;;
70812;SDS011;62099;52.170;5.386;2022-09-20T19:42:38;7.32;;;1.20;;
70812;SDS011;62099;52.170;5.386;2022-09-20T19:50:47;5.03;;;1.27;;
70812;SDS011;62099;52.170;5.386;2022-09-20T19:53:18;5.22;;;1.10;;
70812;SDS011;62099;52.170;5.386;2022-09-20T19:55:53;6.35;;;1.25;;
70812;SDS011;62099;52.170;5.386;2022-09-20T19:58:24;4.88;;;1.45;;
70812;SDS011;62099;52.170;5.386;2022-09-20T20:03:18;6.63;;;1.27;;
70812;SDS011;62099;52.170;5.386;2022-09-20T20:05:56;5.97;;;1.77;;
70812;SDS011;62099;52.170;5.386;2022-09-20T20:08:36;6.50;;;1.80;;
70812;SDS011;62099;52.170;5.386;2022-09-20T20:11:25;4.78;;;1.50;;
70812;SDS011;62099;52.170;5.386;2022-09-20T20:16:52;6.65;;;1.40;;
70812;SDS011;62099;52.170;5.386;2022-09-20T20:22:16;6.72;;;1.38;;
70812;SDS011;62099;52.170;5.386;2022-09-20T20:25:03;6.43;;;1.52;;
70812;SDS011;62099;52.170;5.386;2022-09-20T20:27:41;4.38;;;1.25;;
70812;SDS011;62099;52.170;5.386;2022-09-20T20:30:07;8.25;;;1.55;;
70812;SDS011;62099;52.170;5.386;2022-09-20T20:32:35;3.38;;;1.10;;
70812;SDS011;62099;52.170;5.386;2022-09-20T20:35:02;7.35;;;1.58;;
70812;SDS011;62099;52.170;5.386;2022-09-20T20:37:29;4.55;;;1.30;;
70812;SDS011;62099;52.170;5.386;2022-09-20T20:39:57;7.07;;;1.83;;
70812;SDS011;62099;52.170;5.386;2022-09-20T20:42:23;9.82;;;1.70;;
70812;SDS011;62099;52.170;5.386;2022-09-20T20:44:52;5.40;;;1.60;;
70812;SDS011;62099;52.170;5.386;2022-09-20T20:47:18;5.07;;;1.67;;
70812;SDS011;62099;52.170;5.386;2022-09-20T20:49:45;13.15;;;2.15;;
70812;SDS011;62099;52.170;5.386;2022-09-20T20:52:17;9.13;;;2.05;;
70812;SDS011;62099;52.170;5.386;2022-09-20T20:54:44;7.30;;;2.03;;
70812;SDS011;62099;52.170;5.386;2022-09-20T20:57:11;5.45;;;1.90;;
70812;SDS011;62099;52.170;5.386;2022-09-20T20:59:37;8.63;;;2.58;;
70812;SDS011;62099;52.170;5.386;2022-09-20T21:02:04;7.28;;;2.83;;
70812;SDS011;62099;52.170;5.386;2022-09-20T21:04:33;6.95;;;2.63;;
70812;SDS011;62099;52.170;5.386;2022-09-20T21:07:00;4.78;;;2.22;;
70812;SDS011;62099;52.170;5.386;2022-09-20T21:09:27;8.75;;;2.58;;
70812;SDS011;62099;52.170;5.386;2022-09-20T21:11:53;8.75;;;2.65;;
70812;SDS011;62099;52.170;5.386;2022-09-20T21:14:20;6.30;;;2.60;;